Terminal Aerodrome Forecast
Issued by NWS St Louis, MO

Home | Current Version | Previous Version | Text Only | Print | Product List | Glossary On
Versions: 1 2 3 4 5 6 7 8 9 10 11 12 13 14 15 16 17 18 19 20 21 22 23 24 25 26 27 28
000
FTUS43 KLSX 240800 AAA
TAFCOU
TAF AMD
KCOU 240810Z 2408/2506 10008KT P6SM SCT050 OVC080
     FM241500 16014G24KT P6SM BKN025
     FM242100 15015G25KT 6SM -SHRA VCTS BKN030CB
     FM250300 15014KT P6SM BKN030=

USA.gov is the U.S. government's official web portal to all federal, state and local government web resources and services.